Time;durP1;ratioP1;P1;durP2;ratioP2;P2;SDS_P1;SDS_P2;PMS_P1;PMS_P2;Temp;Humidity;BMP_temperature;BMP_pressure;BME280_temperature;BME280_humidity;BME280_pressure;Samples;Min_cycle;Max_cycle;Signal;HPM_P1;HPM_P2
2022/11/02 00:01:50;;;;;;;8.57;1.75;;;12.20;99.90;;;;;;6339245;22;20099;-79
2022/11/02 00:04:16;;;;;;;4.63;1.50;;;12.20;99.90;;;;;;6338817;22;20030;-79
2022/11/02 00:06:42;;;;;;;10.43;1.67;;;12.20;99.90;;;;;;6339230;22;20015;-79
2022/11/02 00:09:08;;;;;;;8.35;1.65;;;12.20;99.90;;;;;;6338717;22;20060;-79
2022/11/02 00:11:36;;;;;;;8.93;1.42;;;12.20;99.90;;;;;;6339185;22;20011;-80
2022/11/02 00:14:02;;;;;;;9.95;1.50;;;12.20;99.90;;;;;;6339191;22;20011;-79
2022/11/02 00:16:27;;;;;;;7.80;1.85;;;12.20;99.90;;;;;;6338870;22;20339;-79
2022/11/02 00:18:56;;;;;;;6.70;1.50;;;12.20;99.90;;;;;;6338809;22;20338;-79
2022/11/02 00:21:23;;;;;;;10.35;1.70;;;12.20;99.90;;;;;;6312054;22;20362;-79
2022/11/02 00:23:50;;;;;;;10.52;1.77;;;12.20;99.90;;;;;;6313021;22;20018;-79
2022/11/02 00:26:16;;;;;;;6.40;1.25;;;12.20;99.90;;;;;;6340400;22;20450;-79
2022/11/02 00:28:41;;;;;;;6.25;1.52;;;12.30;99.90;;;;;;6339464;22;20019;-79
2022/11/02 00:31:07;;;;;;;11.90;1.90;;;12.30;99.90;;;;;;6340801;22;20020;-79
2022/11/02 00:33:33;;;;;;;7.03;1.98;;;12.30;99.90;;;;;;6340837;22;20072;-79
2022/11/02 00:35:58;;;;;;;6.57;1.80;;;12.20;99.90;;;;;;6313026;22;20072;-79
2022/11/02 00:38:24;;;;;;;10.77;1.92;;;12.20;99.90;;;;;;6313021;22;20034;-80
2022/11/02 00:40:50;;;;;;;8.60;1.58;;;12.20;99.90;;;;;;6341002;22;20023;-80
2022/11/02 00:43:15;;;;;;;10.45;1.90;;;12.10;99.90;;;;;;6340951;22;20014;-80
2022/11/02 00:45:41;;;;;;;10.43;2.05;;;12.10;99.90;;;;;;6340360;22;20014;-82
2022/11/02 00:48:07;;;;;;;9.77;2.53;;;12.00;99.90;;;;;;6340693;22;20011;-81
2022/11/02 00:50:32;;;;;;;10.35;2.08;;;12.00;99.90;;;;;;6340224;22;20068;-80
2022/11/02 00:52:58;;;;;;;6.90;1.80;;;11.90;99.90;;;;;;6340635;22;20025;-80
2022/11/02 00:55:24;;;;;;;11.07;1.85;;;11.90;99.90;;;;;;6340478;22;20025;-80
2022/11/02 00:57:49;;;;;;;7.40;1.65;;;11.90;99.90;;;;;;6340188;22;20014;-80
2022/11/02 01:00:15;;;;;;;11.35;2.25;;;11.90;99.90;;;;;;6312750;22;20046;-79
2022/11/02 01:02:41;;;;;;;6.55;2.63;;;11.80;99.90;;;;;;6312657;22;20485;-81
2022/11/02 01:05:08;;;;;;;10.93;2.55;;;11.80;99.90;;;;;;6340521;22;20011;-80
2022/11/02 01:07:34;;;;;;;8.82;2.15;;;11.70;99.90;;;;;;6312383;22;20023;-80
2022/11/02 01:09:59;;;;;;;7.63;2.28;;;11.60;99.90;;;;;;6312548;22;20308;-80
2022/11/02 01:12:25;;;;;;;7.00;1.90;;;11.60;99.90;;;;;;6340550;22;20107;-80
2022/11/02 01:14:51;;;;;;;6.90;1.80;;;11.60;99.90;;;;;;6340408;22;20011;-81
2022/11/02 01:17:17;;;;;;;7.65;2.13;;;11.50;99.90;;;;;;6312591;22;20021;-79
2022/11/02 01:19:43;;;;;;;7.68;2.40;;;11.50;99.90;;;;;;6340111;22;20023;-80
2022/11/02 01:22:08;;;;;;;6.70;1.83;;;11.50;99.90;;;;;;6340085;22;20023;-80
2022/11/02 01:24:34;;;;;;;7.18;1.70;;;11.40;99.90;;;;;;6340423;22;20037;-80
2022/11/02 01:27:00;;;;;;;6.00;1.80;;;11.40;99.90;;;;;;6339946;22;20023;-80
2022/11/02 01:29:26;;;;;;;5.68;1.67;;;11.40;99.90;;;;;;6340488;22;20064;-79
2022/11/02 01:31:52;;;;;;;6.47;1.83;;;11.30;99.90;;;;;;6312477;22;20030;-80
2022/11/02 01:34:19;;;;;;;5.88;1.50;;;11.30;99.90;;;;;;6312359;22;20025;-80
2022/11/02 01:36:45;;;;;;;5.72;1.73;;;11.20;99.90;;;;;;6312367;22;20060;-79
2022/11/02 01:39:12;;;;;;;5.30;1.70;;;11.20;99.90;;;;;;6340195;22;20013;-80
2022/11/02 01:41:37;;;;;;;7.93;1.83;;;11.30;99.90;;;;;;6312342;22;20019;-80
2022/11/02 01:44:04;;;;;;;6.38;1.50;;;11.30;99.90;;;;;;6312187;22;20075;-80
2022/11/02 01:46:37;;;;;;;6.38;1.10;;;11.30;99.90;;;;;;6340100;22;20011;-80
2022/11/02 01:49:10;;;;;;;4.65;1.20;;;11.30;99.90;;;;;;6312246;22;20026;-79
2022/11/02 01:51:44;;;;;;;5.03;0.82;;;11.30;99.90;;;;;;6312235;22;20011;-80
2022/11/02 01:54:14;;;;;;;9.32;1.48;;;11.40;99.90;;;;;;6339856;22;20019;-80
2022/11/02 01:56:42;;;;;;;7.05;1.35;;;11.30;99.90;;;;;;6340160;22;20052;-80
2022/11/02 01:59:13;;;;;;;8.15;2.05;;;11.30;99.90;;;;;;6340089;22;20026;-80
2022/11/02 02:01:39;;;;;;;8.70;2.17;;;11.40;99.90;;;;;;6340106;22;20075;-81
2022/11/02 02:04:05;;;;;;;7.25;1.10;;;11.30;99.90;;;;;;6340024;22;20450;-80
2022/11/02 02:06:31;;;;;;;4.72;1.05;;;11.30;99.90;;;;;;6339510;22;20025;-80
2022/11/02 02:09:02;;;;;;;4.88;0.95;;;11.30;99.90;;;;;;6339679;22;20054;-81
2022/11/02 02:11:33;;;;;;;5.53;1.25;;;11.30;99.90;;;;;;6340048;22;20015;-79
2022/11/02 02:14:04;;;;;;;6.50;1.25;;;11.30;99.90;;;;;;6339635;22;20461;-81
2022/11/02 02:16:49;;;;;;;4.90;0.80;;;11.30;99.90;;;;;;6340025;22;20015;-81
2022/11/02 02:19:48;;;;;;;4.05;0.80;;;11.20;99.90;;;;;;6339979;22;20018;-80
2022/11/02 02:22:26;;;;;;;5.32;0.93;;;11.20;99.90;;;;;;6298694;22;20011;-80
2022/11/02 02:25:16;;;;;;;6.25;1.38;;;11.20;99.90;;;;;;6339843;22;20064;-80
2022/11/02 02:28:10;;;;;;;4.07;0.73;;;11.10;99.90;;;;;;6311747;22;20030;-80
2022/11/02 02:30:45;;;;;;;2.83;0.73;;;11.00;99.90;;;;;;6338882;22;20074;-80
2022/11/02 02:33:30;;;;;;;5.95;0.95;;;11.00;99.90;;;;;;6310676;22;20022;-79
2022/11/02 02:36:05;;;;;;;4.32;0.80;;;11.00;99.90;;;;;;6311632;22;20019;-79
2022/11/02 02:38:42;;;;;;;7.47;1.02;;;11.00;99.90;;;;;;6311737;22;20022;-80
2022/11/02 02:41:29;;;;;;;4.88;0.90;;;11.00;99.90;;;;;;6310661;22;20019;-80
2022/11/02 02:43:57;;;;;;;11.02;2.58;;;11.00;99.90;;;;;;6339526;22;20018;-80
2022/11/02 02:46:33;;;;;;;6.35;1.60;;;11.00;99.90;;;;;;6339648;22;20045;-80
2022/11/02 02:48:59;;;;;;;3.63;0.70;;;11.00;99.90;;;;;;6339393;22;20324;-80
2022/11/02 02:51:29;;;;;;;4.28;0.88;;;10.90;99.90;;;;;;6339773;22;20007;-80
2022/11/02 02:54:11;;;;;;;3.00;0.70;;;10.90;99.90;;;;;;6339689;22;20025;-80
2022/11/02 02:56:42;;;;;;;4.90;1.03;;;10.90;99.90;;;;;;6311616;22;20058;-79
2022/11/02 02:59:17;;;;;;;4.50;1.30;;;10.80;99.90;;;;;;6339694;22;20257;-79
2022/11/02 03:01:44;;;;;;;3.05;1.40;;;10.80;99.90;;;;;;6339754;22;20072;-79
2022/11/02 03:04:14;;;;;;;4.82;1.67;;;10.80;99.90;;;;;;6311610;22;20015;-80
2022/11/02 03:07:00;;;;;;;6.10;1.77;;;10.80;99.90;;;;;;6339484;22;20056;-80
2022/11/02 03:09:50;;;;;;;3.38;1.20;;;10.70;99.90;;;;;;6339260;22;20007;-80
2022/11/02 03:12:25;;;;;;;5.70;1.20;;;10.70;99.90;;;;;;6339502;22;20015;-80
2022/11/02 03:15:06;;;;;;;4.90;1.25;;;10.70;99.90;;;;;;6339522;22;20011;-79
2022/11/02 03:17:36;;;;;;;3.75;1.10;;;10.70;99.90;;;;;;6311558;22;20346;-80
2022/11/02 03:20:17;;;;;;;3.58;1.00;;;10.70;99.90;;;;;;6339374;22;20029;-79
2022/11/02 03:22:52;;;;;;;3.28;1.20;;;10.80;99.90;;;;;;6339600;22;20019;-80
2022/11/02 03:25:27;;;;;;;6.00;1.05;;;10.80;99.90;;;;;;6311458;22;20050;-79
2022/11/02 03:28:23;;;;;;;3.83;1.77;;;10.80;99.90;;;;;;6311443;22;20412;-80
2022/11/02 03:30:56;;;;;;;8.73;1.98;;;10.80;99.90;;;;;;6339486;22;20029;-79
2022/11/02 03:33:31;;;;;;;3.78;0.70;;;10.80;99.90;;;;;;6339477;22;20011;-79
2022/11/02 03:36:07;;;;;;;5.57;0.70;;;10.80;99.90;;;;;;6339422;22;20011;-79
2022/11/02 03:38:56;;;;;;;5.28;0.90;;;10.80;99.90;;;;;;6339181;22;20023;-80
2022/11/02 03:41:23;;;;;;;6.00;0.80;;;10.80;99.90;;;;;;6339422;22;20060;-80
2022/11/02 03:43:54;;;;;;;3.75;0.60;;;10.80;99.90;;;;;;6311288;22;20047;-79
2022/11/02 03:46:20;;;;;;;6.80;0.90;;;10.80;99.90;;;;;;6339302;22;20023;-79
2022/11/02 03:48:49;;;;;;;7.43;0.60;;;10.80;99.90;;;;;;6311890;22;20011;-79
2022/11/02 03:51:19;;;;;;;5.20;1.40;;;10.80;99.90;;;;;;6338881;22;20435;-79
2022/11/02 03:53:55;;;;;;;5.50;0.65;;;10.80;99.90;;;;;;6339221;22;20312;-79
2022/11/02 03:56:44;;;;;;;7.45;1.00;;;10.70;99.90;;;;;;6340253;22;20086;-79
2022/11/02 03:59:12;;;;;;;3.78;0.70;;;10.70;99.90;;;;;;6312336;22;20019;-79
2022/11/02 04:01:46;;;;;;;6.95;0.80;;;10.70;99.90;;;;;;6340895;22;20054;-78
2022/11/02 04:04:12;;;;;;;7.47;1.30;;;10.70;99.90;;;;;;6313271;22;20086;-78
2022/11/02 04:06:39;;;;;;;5.32;0.57;;;10.70;99.90;;;;;;6341047;22;20478;-78
2022/11/02 04:09:05;;;;;;;3.75;0.70;;;10.70;99.90;;;;;;6340703;22;20011;-79
2022/11/02 04:19:55;;;;;;;7.38;1.00;;;10.70;99.90;;;;;;6313154;22;20112;-80
2022/11/02 04:25:19;;;;;;;7.13;1.20;;;10.60;99.90;;;;;;6312934;22;20331;-81
2022/11/02 04:27:47;;;;;;;7.63;1.23;;;10.60;99.90;;;;;;6312827;22;20075;-81
2022/11/02 04:30:14;;;;;;;5.47;0.93;;;10.60;99.90;;;;;;6340504;22;20017;-80
2022/11/02 04:35:27;;;;;;;7.15;1.27;;;10.60;99.90;;;;;;6312840;22;20464;-80
2022/11/02 04:40:37;;;;;;;10.80;0.95;;;10.60;99.90;;;;;;6340493;22;20316;-80
2022/11/02 04:43:03;;;;;;;5.57;0.95;;;10.70;99.90;;;;;;6312841;22;20015;-80
2022/11/02 04:45:29;;;;;;;10.00;1.40;;;10.70;99.90;;;;;;6312828;22;20548;-80
2022/11/02 04:48:08;;;;;;;10.32;1.13;;;10.80;99.90;;;;;;6340718;22;20018;-82
2022/11/02 04:50:34;;;;;;;6.13;1.05;;;10.80;99.90;;;;;;6340403;22;20354;-80
2022/11/02 04:53:02;;;;;;;5.50;1.35;;;10.80;99.90;;;;;;6312798;22;20014;-81
2022/11/02 04:55:28;;;;;;;6.65;1.23;;;10.80;99.90;;;;;;6312833;22;20057;-81
2022/11/02 04:57:53;;;;;;;7.97;1.45;;;10.80;99.90;;;;;;6312810;22;20026;-81
2022/11/02 05:00:20;;;;;;;8.95;1.38;;;10.80;99.90;;;;;;6340667;22;20014;-81
2022/11/02 05:02:47;;;;;;;10.07;1.40;;;10.80;99.90;;;;;;6340307;22;20022;-81
2022/11/02 05:05:14;;;;;;;10.30;1.48;;;10.80;99.90;;;;;;6312732;22;20396;-82
2022/11/02 05:07:39;;;;;;;11.65;1.70;;;10.70;99.90;;;;;;6340140;22;20018;-81
2022/11/02 05:10:05;;;;;;;15.00;1.40;;;10.70;99.90;;;;;;6340045;22;20011;-81
2022/11/02 05:12:31;;;;;;;10.18;1.80;;;10.70;99.90;;;;;;6312636;22;20474;-80
2022/11/02 05:14:57;;;;;;;6.05;1.30;;;10.70;99.90;;;;;;6312695;22;20011;-81
2022/11/02 05:17:22;;;;;;;8.55;1.27;;;10.70;99.90;;;;;;6340522;22;20011;-82
2022/11/02 05:19:48;;;;;;;8.30;1.90;;;10.70;99.90;;;;;;6340466;22;20021;-80
2022/11/02 05:22:14;;;;;;;9.20;2.13;;;10.70;99.90;;;;;;6340462;22;20384;-80
2022/11/02 05:24:39;;;;;;;9.50;1.48;;;10.70;99.90;;;;;;6340170;22;20011;-81
2022/11/02 05:27:05;;;;;;;11.77;1.63;;;10.70;99.90;;;;;;6312455;22;20018;-81
2022/11/02 05:29:31;;;;;;;10.15;1.60;;;10.70;99.90;;;;;;6340418;22;20022;-81
2022/11/02 05:31:56;;;;;;;9.30;1.48;;;10.70;99.90;;;;;;6339933;22;20011;-81
2022/11/02 05:34:22;;;;;;;8.43;1.55;;;10.70;99.90;;;;;;6340292;22;20034;-79
2022/11/02 05:36:48;;;;;;;9.23;1.33;;;10.70;99.90;;;;;;6340376;22;20092;-81
2022/11/02 05:39:14;;;;;;;8.77;1.30;;;10.70;99.90;;;;;;6312299;22;20018;-81
2022/11/02 05:41:40;;;;;;;6.47;1.77;;;10.70;99.90;;;;;;6340262;22;20025;-81
2022/11/02 05:44:05;;;;;;;10.35;1.60;;;10.70;99.90;;;;;;6339727;22;20018;-81
2022/11/02 05:46:32;;;;;;;9.82;1.88;;;10.60;99.90;;;;;;6312580;22;20014;-80
2022/11/02 05:48:58;;;;;;;10.13;2.53;;;10.70;99.90;;;;;;6340216;22;20015;-79
2022/11/02 05:51:23;;;;;;;10.20;1.83;;;10.60;99.90;;;;;;6340192;22;20025;-80
2022/11/02 05:53:49;;;;;;;9.13;1.58;;;10.60;99.90;;;;;;6312231;22;20021;-80
2022/11/02 05:56:15;;;;;;;10.75;1.35;;;10.60;99.90;;;;;;6339798;22;20049;-80
2022/11/02 05:58:40;;;;;;;9.15;2.00;;;10.60;99.90;;;;;;6312192;22;20021;-79
2022/11/02 06:01:07;;;;;;;10.68;1.65;;;10.60;99.90;;;;;;6312254;22;20019;-79
2022/11/02 06:03:33;;;;;;;13.18;2.72;;;10.60;99.90;;;;;;6312013;22;20018;-80
2022/11/02 06:06:02;;;;;;;11.85;1.85;;;10.60;99.90;;;;;;6312044;22;20453;-80
2022/11/02 06:08:33;;;;;;;7.18;1.20;;;10.60;99.90;;;;;;6311887;22;20015;-80
2022/11/02 06:11:07;;;;;;;10.13;1.60;;;10.60;99.90;;;;;;6312133;22;20072;-80
2022/11/02 06:13:33;;;;;;;6.97;1.40;;;10.70;99.90;;;;;;6339809;22;20093;-80
2022/11/02 06:16:00;;;;;;;10.27;1.77;;;10.60;99.90;;;;;;6312152;22;20022;-79
2022/11/02 06:18:26;;;;;;;8.98;2.10;;;10.60;99.90;;;;;;6311909;22;20018;-80
2022/11/02 06:20:52;;;;;;;13.70;2.58;;;10.60;99.90;;;;;;6311932;22;20491;-79
2022/11/02 06:23:17;;;;;;;8.93;2.03;;;10.60;99.90;;;;;;6311952;22;20513;-80
2022/11/02 06:25:52;;;;;;;10.40;1.45;;;10.70;99.90;;;;;;6311967;22;20019;-80
2022/11/02 06:28:19;;;;;;;11.02;1.60;;;10.70;99.90;;;;;;6311898;22;20018;-80
2022/11/02 06:30:44;;;;;;;10.70;1.52;;;10.70;99.90;;;;;;6311869;22;20017;-80
2022/11/02 06:33:10;;;;;;;9.52;1.77;;;10.60;99.90;;;;;;6311657;22;20023;-80
2022/11/02 06:35:36;;;;;;;14.27;2.13;;;10.60;99.90;;;;;;6311273;22;20011;-79
2022/11/02 06:38:02;;;;;;;12.30;1.73;;;10.60;99.90;;;;;;6311301;22;20015;-80
2022/11/02 06:40:28;;;;;;;14.30;2.70;;;10.60;99.90;;;;;;6311653;22;20015;-80
2022/11/02 06:42:57;;;;;;;9.43;1.58;;;10.60;99.90;;;;;;6339574;22;20093;-80
2022/11/02 06:45:26;;;;;;;8.48;1.80;;;10.60;99.90;;;;;;6311099;22;20007;-80
2022/11/02 06:47:51;;;;;;;16.60;1.70;;;10.70;99.90;;;;;;6311413;22;20454;-80
2022/11/02 06:50:17;;;;;;;14.38;1.60;;;10.70;99.90;;;;;;6339699;22;20018;-80
2022/11/02 06:52:44;;;;;;;10.75;1.73;;;10.70;99.90;;;;;;6311653;22;20018;-80
2022/11/02 06:55:11;;;;;;;14.43;2.10;;;10.70;99.90;;;;;;6339570;22;20011;-80
2022/11/02 06:57:38;;;;;;;7.82;1.40;;;10.60;99.90;;;;;;6311982;22;20014;-80
2022/11/02 07:00:07;;;;;;;5.25;1.00;;;10.60;99.90;;;;;;6339403;22;20053;-80
2022/11/02 07:02:32;;;;;;;6.95;1.10;;;10.60;99.90;;;;;;6339189;22;20470;-81
2022/11/02 07:04:58;;;;;;;11.52;1.77;;;10.50;99.90;;;;;;6339498;22;20018;-80
2022/11/02 07:07:24;;;;;;;5.38;1.10;;;10.50;99.90;;;;;;6339387;22;20026;-79
2022/11/02 07:09:50;;;;;;;6.07;1.10;;;10.40;99.90;;;;;;6338995;22;20021;-80
2022/11/02 07:12:15;;;;;;;11.13;1.50;;;10.40;99.90;;;;;;6339488;22;20346;-80
2022/11/02 07:14:41;;;;;;;11.35;1.25;;;10.40;99.90;;;;;;6339541;22;20308;-80
2022/11/02 07:17:06;;;;;;;8.32;1.33;;;10.40;99.90;;;;;;6338881;22;20347;-80
2022/11/02 07:19:32;;;;;;;10.13;4.05;;;10.40;99.90;;;;;;6311378;22;20011;-79
2022/11/02 07:21:58;;;;;;;10.50;2.28;;;10.40;99.90;;;;;;6339272;22;20019;-82
2022/11/02 07:24:23;;;;;;;12.63;2.35;;;10.40;99.90;;;;;;6310138;22;20386;-81
2022/11/02 07:26:49;;;;;;;12.40;1.75;;;10.40;99.90;;;;;;6338349;22;20089;-80
2022/11/02 07:29:16;;;;;;;11.77;2.10;;;10.30;99.90;;;;;;6338402;22;20015;-79
2022/11/02 07:31:41;;;;;;;10.77;1.65;;;10.30;99.90;;;;;;6341280;22;20022;-79
2022/11/02 07:34:07;;;;;;;11.15;1.90;;;10.40;99.90;;;;;;6341126;22;20011;-80
2022/11/02 07:36:33;;;;;;;11.52;2.17;;;10.30;99.90;;;;;;6341119;22;20046;-79
2022/11/02 07:38:58;;;;;;;12.27;2.33;;;10.40;99.90;;;;;;6341033;22;20015;-79
2022/11/02 07:41:24;;;;;;;21.50;3.50;;;10.50;99.90;;;;;;6340862;22;20094;-79
2022/11/02 07:43:50;;;;;;;10.20;2.35;;;10.50;99.90;;;;;;6340737;22;20450;-79
2022/11/02 07:46:15;;;;;;;13.25;2.67;;;10.60;99.90;;;;;;6340352;22;20140;-79
2022/11/02 07:48:41;;;;;;;11.82;2.85;;;10.70;99.90;;;;;;6312697;22;20018;-80
2022/11/02 07:51:07;;;;;;;22.65;3.58;;;10.80;99.90;;;;;;6340531;22;20021;-80
2022/11/02 07:53:33;;;;;;;10.77;2.63;;;10.90;99.90;;;;;;6313344;22;20019;-81
2022/11/02 07:56:03;;;;;;;13.25;2.67;;;10.90;99.90;;;;;;6340814;22;20089;-78
2022/11/02 07:58:29;;;;;;;12.60;2.88;;;11.10;99.90;;;;;;6340840;22;20084;-80
2022/11/02 08:00:57;;;;;;;17.85;3.40;;;11.10;99.90;;;;;;6312045;22;20362;-81
2022/11/02 08:03:23;;;;;;;13.43;2.97;;;11.10;99.90;;;;;;6312832;22;20052;-80
2022/11/02 08:05:48;;;;;;;10.30;1.10;;;11.20;99.90;;;;;;6340696;22;20064;-79
2022/11/02 08:08:19;;;;;;;11.30;1.52;;;11.10;99.90;;;;;;6312613;22;20387;-84
2022/11/02 08:10:47;;;;;;;12.15;1.35;;;11.00;99.90;;;;;;6312032;22;20023;-79
2022/11/02 08:13:15;;;;;;;4.07;0.50;;;10.90;99.90;;;;;;6340366;22;20019;-81
2022/11/02 08:15:41;;;;;;;7.00;0.73;;;10.80;99.90;;;;;;6312676;22;20078;-80
2022/11/02 08:18:13;;;;;;;5.28;0.80;;;10.80;99.90;;;;;;6339834;22;20450;-80
2022/11/02 08:20:38;;;;;;;6.50;0.90;;;10.70;99.90;;;;;;6312690;22;20085;-80
2022/11/02 08:23:04;;;;;;;6.32;0.68;;;10.70;99.90;;;;;;6340202;22;20064;-79
2022/11/02 08:25:31;;;;;;;14.80;2.25;;;10.60;99.90;;;;;;6340545;22;20018;-80
2022/11/02 08:27:58;;;;;;;11.05;1.70;;;10.60;99.90;;;;;;6340590;22;20019;-80
2022/11/02 08:30:24;;;;;;;20.80;2.67;;;10.50;99.90;;;;;;6340395;22;20011;-81
2022/11/02 08:32:49;;;;;;;54.17;5.63;;;10.50;99.90;;;;;;6312839;22;20366;-80
2022/11/02 08:35:15;;;;;;;5.88;1.17;;;10.50;99.90;;;;;;6311804;22;20015;-80
2022/11/02 08:37:41;;;;;;;9.68;1.00;;;10.60;99.90;;;;;;6340271;22;20022;-80
2022/11/02 08:40:07;;;;;;;6.43;1.42;;;10.60;99.90;;;;;;6340701;22;20026;-80
2022/11/02 08:42:32;;;;;;;11.95;2.05;;;10.60;99.90;;;;;;6340312;22;20011;-79
2022/11/02 08:44:58;;;;;;;12.98;1.90;;;10.70;99.90;;;;;;6312799;22;20149;-80
2022/11/02 08:47:24;;;;;;;9.25;2.00;;;10.70;99.90;;;;;;6312523;22;20026;-79
2022/11/02 08:49:50;;;;;;;11.27;1.95;;;10.80;99.90;;;;;;6312765;22;20011;-80
2022/11/02 08:52:17;;;;;;;10.23;2.25;;;10.90;99.90;;;;;;6340177;22;20458;-80
2022/11/02 08:54:43;;;;;;;17.50;2.58;;;11.10;99.90;;;;;;6340617;22;20177;-80
2022/11/02 08:57:09;;;;;;;16.52;2.38;;;11.20;99.90;;;;;;6340191;22;20489;-80
2022/11/02 08:59:34;;;;;;;11.65;1.85;;;11.30;99.90;;;;;;6340588;22;20143;-79
2022/11/02 09:02:00;;;;;;;16.98;1.85;;;11.40;99.90;;;;;;6312402;22;20015;-80
2022/11/02 09:04:25;;;;;;;10.98;2.35;;;11.50;99.90;;;;;;6312555;22;20015;-80
2022/11/02 09:06:51;;;;;;;13.25;1.77;;;11.60;99.90;;;;;;6340186;22;20338;-80
2022/11/02 09:09:17;;;;;;;11.05;2.15;;;11.70;99.90;;;;;;6312396;22;20018;-80
2022/11/02 09:11:42;;;;;;;20.40;3.13;;;11.80;99.90;;;;;;6340425;22;20022;-80
2022/11/02 09:14:08;;;;;;;28.08;2.65;;;11.90;99.90;;;;;;6340426;22;20335;-79
2022/11/02 09:16:34;;;;;;;62.25;7.75;;;12.00;99.90;;;;;;6339974;22;20019;-80
2022/11/02 09:18:59;;;;;;;32.38;3.88;;;12.10;99.90;;;;;;6339929;22;20019;-80
2022/11/02 09:21:25;;;;;;;25.55;3.47;;;12.20;99.90;;;;;;6340312;22;20021;-79
2022/11/02 09:23:50;;;;;;;55.38;6.10;;;12.20;99.90;;;;;;6340304;22;20552;-79
2022/11/02 09:26:16;;;;;;;64.93;7.60;;;12.30;99.90;;;;;;6339868;22;20018;-79
2022/11/02 09:28:42;;;;;;;47.78;5.60;;;12.40;99.90;;;;;;6340282;22;20334;-79
2022/11/02 09:31:07;;;;;;;27.60;3.08;;;12.50;99.90;;;;;;6312396;22;20494;-79
2022/11/02 09:33:35;;;;;;;15.65;2.15;;;12.50;99.90;;;;;;6340197;22;20010;-79
2022/11/02 09:36:04;;;;;;;51.97;6.05;;;12.50;99.90;;;;;;6339778;22;20021;-79
2022/11/02 09:38:30;;;;;;;46.63;5.13;;;12.60;99.90;;;;;;6312304;22;20439;-79
2022/11/02 09:41:12;;;;;;;19.90;3.13;;;12.70;99.90;;;;;;6312338;22;20050;-79
2022/11/02 09:44:06;;;;;;;37.30;4.63;;;12.70;99.90;;;;;;6312900;22;20015;-79
2022/11/02 09:46:42;;;;;;;34.30;5.75;;;12.80;99.90;;;;;;6339740;22;20572;-79
2022/11/02 09:49:12;;;;;;;17.52;2.60;;;12.90;99.90;;;;;;6339769;22;20011;-79
2022/11/02 09:51:43;;;;;;;11.80;2.17;;;13.00;99.90;;;;;;6340094;22;20017;-79
2022/11/02 09:54:20;;;;;;;12.45;2.42;;;13.10;99.90;;;;;;6312141;22;20042;-79
2022/11/02 09:56:48;;;;;;;8.77;1.70;;;13.20;99.90;;;;;;6340122;22;20042;-79
2022/11/02 09:59:18;;;;;;;16.05;2.15;;;13.30;99.90;;;;;;6312782;22;20015;-79
2022/11/02 10:02:29;;;;;;;16.10;2.38;;;13.40;99.90;;;;;;6340148;22;20458;-79
2022/11/02 10:04:58;;;;;;;14.45;1.88;;;13.30;99.90;;;;;;6340335;22;20019;-79
2022/11/02 10:07:56;;;;;;;15.20;1.90;;;13.40;99.90;;;;;;6339780;22;20085;-79
2022/11/02 10:10:35;;;;;;;15.90;2.10;;;13.50;99.90;;;;;;6340238;22;20023;-80
2022/11/02 10:13:01;;;;;;;11.60;1.80;;;13.40;99.90;;;;;;6340061;22;20358;-79
2022/11/02 10:15:39;;;;;;;16.33;2.05;;;13.40;99.90;;;;;;6312147;22;20026;-79
2022/11/02 10:18:28;;;;;;;10.05;1.70;;;13.50;99.90;;;;;;6339884;22;20011;-79
2022/11/02 10:21:25;;;;;;;9.02;1.50;;;13.50;99.90;;;;;;6311601;22;20087;-80
2022/11/02 10:23:55;;;;;;;12.43;1.50;;;13.50;99.90;;;;;;6332976;22;20010;-79
2022/11/02 10:26:25;;;;;;;18.83;2.25;;;13.50;99.90;;;;;;6339543;22;20018;-79
2022/11/02 10:29:16;;;;;;;7.95;1.50;;;13.50;99.90;;;;;;6339212;22;20375;-80
2022/11/02 10:31:45;;;;;;;7.78;1.83;;;13.60;99.90;;;;;;6321763;22;20518;-80
2022/11/02 10:34:30;;;;;;;10.55;2.10;;;13.60;99.90;;;;;;6339608;22;20025;-80
2022/11/02 10:37:10;;;;;;;9.52;1.80;;;13.60;99.90;;;;;;6339859;22;20023;-79
2022/11/02 10:40:14;;;;;;;9.48;1.40;;;13.60;99.90;;;;;;6339630;22;20086;-79
2022/11/02 10:43:02;;;;;;;9.50;1.60;;;13.60;99.90;;;;;;6255080;22;20093;-79
2022/11/02 10:45:53;;;;;;;14.70;1.77;;;13.70;99.90;;;;;;6339502;22;20469;-79
2022/11/02 10:48:41;;;;;;;9.30;1.80;;;13.70;99.90;;;;;;6339677;22;20364;-79
2022/11/02 10:51:16;;;;;;;12.05;2.00;;;13.80;99.90;;;;;;6339547;22;20019;-79
2022/11/02 10:53:44;;;;;;;9.68;1.42;;;13.80;99.90;;;;;;6311822;22;20046;-79
2022/11/02 10:56:21;;;;;;;9.90;1.83;;;13.80;99.90;;;;;;6311554;22;20063;-79
2022/11/02 10:59:13;;;;;;;12.40;2.05;;;13.90;99.90;;;;;;6339612;22;20025;-79
2022/11/02 11:01:46;;;;;;;16.42;2.28;;;13.80;99.90;;;;;;6339462;22;20015;-79
2022/11/02 11:04:21;;;;;;;14.02;2.03;;;13.80;99.90;;;;;;6339517;22;20014;-79
2022/11/02 11:06:47;;;;;;;9.60;1.70;;;13.90;99.90;;;;;;6311391;22;20023;-79
2022/11/02 11:09:23;;;;;;;11.52;1.40;;;13.90;99.90;;;;;;6311283;22;20407;-79
2022/11/02 11:12:21;;;;;;;8.25;1.42;;;14.00;99.90;;;;;;6339713;22;20086;-79
2022/11/02 11:14:56;;;;;;;12.57;1.73;;;14.00;99.90;;;;;;6338037;22;20025;-79
2022/11/02 11:17:49;;;;;;;7.78;1.70;;;14.10;99.90;;;;;;6339592;22;20015;-79
2022/11/02 11:20:32;;;;;;;9.52;1.13;;;14.00;99.90;;;;;;6334128;22;20029;-79
2022/11/02 11:23:23;;;;;;;8.98;1.23;;;14.00;99.90;;;;;;6339585;22;20015;-79
2022/11/02 11:26:04;;;;;;;8.20;1.70;;;14.00;99.90;;;;;;6339072;22;20383;-79
2022/11/02 11:28:31;;;;;;;13.50;1.42;;;14.10;99.90;;;;;;6339370;22;20086;-79
2022/11/02 11:31:13;;;;;;;9.63;1.27;;;14.10;99.90;;;;;;6339530;22;20015;-79
2022/11/02 11:33:50;;;;;;;7.40;1.53;;;14.10;99.90;;;;;;6311496;22;20032;-79
2022/11/02 11:36:33;;;;;;;11.45;2.38;;;14.00;99.90;;;;;;6339536;22;20046;-79
2022/11/02 11:39:05;;;;;;;15.55;2.05;;;13.80;99.90;;;;;;6339442;22;20014;-79
2022/11/02 11:41:33;;;;;;;18.57;3.27;;;13.70;99.90;;;;;;6339146;22;20435;-79
2022/11/02 11:44:00;;;;;;;11.48;1.63;;;13.70;99.90;;;;;;6339352;22;20022;-80
2022/11/02 11:46:45;;;;;;;7.95;1.17;;;13.70;99.90;;;;;;6311369;22;20025;-79
2022/11/02 11:49:29;;;;;;;12.82;1.50;;;13.70;99.90;;;;;;6339470;22;20046;-79
2022/11/02 11:51:57;;;;;;;13.68;1.55;;;13.80;99.90;;;;;;6338944;22;20338;-79
2022/11/02 11:54:29;;;;;;;11.88;1.80;;;13.80;99.90;;;;;;6311698;22;20021;-79
2022/11/02 11:57:15;;;;;;;9.98;1.33;;;13.90;99.90;;;;;;6311424;22;20018;-79
2022/11/02 11:59:48;;;;;;;8.77;1.15;;;13.90;99.90;;;;;;6339166;22;20019;-80
2022/11/02 12:02:31;;;;;;;8.32;1.20;;;13.90;99.90;;;;;;6339046;22;20076;-80
2022/11/02 12:05:00;;;;;;;7.80;1.38;;;13.80;99.90;;;;;;6339260;22;20011;-79
2022/11/02 12:07:47;;;;;;;7.57;1.23;;;13.90;99.90;;;;;;6311546;22;20022;-79
2022/11/02 12:10:36;;;;;;;9.02;1.23;;;13.90;99.90;;;;;;6338864;22;20023;-79
2022/11/02 12:13:39;;;;;;;6.13;1.30;;;14.00;99.90;;;;;;6311306;22;20113;-79
2022/11/02 12:16:10;;;;;;;12.90;2.22;;;14.00;99.90;;;;;;6311199;22;20019;-79
2022/11/02 12:19:05;;;;;;;8.68;1.48;;;14.00;99.90;;;;;;6313070;22;20015;-79
2022/11/02 12:21:56;;;;;;;8.57;1.42;;;14.00;99.90;;;;;;6338793;22;20053;-79
2022/11/02 12:24:47;;;;;;;6.57;0.88;;;14.00;99.90;;;;;;6340969;22;20014;-79
2022/11/02 12:27:21;;;;;;;12.95;1.48;;;13.90;99.90;;;;;;6312317;22;20032;-80
2022/11/02 12:29:57;;;;;;;12.00;1.20;;;14.00;99.90;;;;;;6340950;22;20078;-80
2022/11/02 12:33:09;;;;;;;11.82;1.60;;;14.00;99.90;;;;;;6341002;22;20018;-80
2022/11/02 12:35:49;;;;;;;13.93;2.25;;;14.00;99.90;;;;;;6271814;22;20018;-79
2022/11/02 12:38:48;;;;;;;17.67;2.10;;;14.10;99.90;;;;;;6340989;22;20011;-80
2022/11/02 12:41:28;;;;;;;15.35;3.22;;;14.10;99.90;;;;;;6340920;22;20011;-80
2022/11/02 12:44:13;;;;;;;11.10;1.45;;;14.20;99.90;;;;;;6313067;22;20094;-80
2022/11/02 12:47:15;;;;;;;10.63;1.77;;;14.30;99.90;;;;;;6340685;22;20343;-80
2022/11/02 12:49:59;;;;;;;7.80;1.55;;;14.20;99.90;;;;;;6293453;22;20014;-79
2022/11/02 12:52:49;;;;;;;12.63;1.55;;;14.30;99.90;;;;;;6340416;22;20062;-79
2022/11/02 12:55:22;;;;;;;9.73;1.77;;;14.30;99.90;;;;;;6340772;22;20068;-80
2022/11/02 12:57:58;;;;;;;10.82;1.52;;;14.20;99.90;;;;;;6312983;22;20042;-80
2022/11/02 13:00:24;;;;;;;12.15;1.42;;;14.10;99.90;;;;;;6312354;22;20450;-79
2022/11/02 13:03:26;;;;;;;9.25;1.92;;;14.00;99.90;;;;;;6340256;22;20033;-79
2022/11/02 13:05:59;;;;;;;15.32;1.65;;;13.90;99.90;;;;;;6340612;22;20078;-80
2022/11/02 13:08:44;;;;;;;12.82;1.65;;;13.90;99.90;;;;;;6340347;22;20022;-80
2022/11/02 13:11:21;;;;;;;16.15;2.15;;;13.80;99.90;;;;;;6340674;22;20098;-80
2022/11/02 13:14:11;;;;;;;11.20;1.77;;;13.90;99.90;;;;;;6313039;22;20011;-80
2022/11/02 13:16:54;;;;;;;8.75;1.55;;;13.90;99.90;;;;;;6340491;22;20010;-80
2022/11/02 13:19:32;;;;;;;11.10;2.20;;;14.00;99.90;;;;;;6340663;22;20015;-80
2022/11/02 13:21:58;;;;;;;13.02;1.92;;;14.10;99.90;;;;;;6312878;22;20018;-80
2022/11/02 13:24:33;;;;;;;10.57;1.60;;;14.10;99.90;;;;;;6312082;22;20019;-80